Home > Products > Valid Products > TAF

000
FTUS44 KHGX 282243 AAA
TAFGLS
TAF AMD
KGLS 282243Z 2823/2918 19009KT P6SM BKN025
     FM290600 15013KT P6SM SCT020 SCT250=



000
FTUS44 KHGX 282149 AAB
TAFLBX
TAF AMD
KLBX 282149Z 2822/2918 17014KT P6SM SKC
     FM290000 14007KT P6SM SCT015
     FM290900 12005KT 5SM BR BKN015
     FM291500 12005KT P6SM SCT020 SCT150=



000
FTUS44 KHGX 282050 AAA
TAFIAH
TAF AMD
KIAH 282050Z 2821/2924 18008KT P6SM FEW040
     FM282200 14010KT P6SM VCSH BKN035
     FM290000 13007KT P6SM FEW015
     FM291000 12003KT P6SM MIFG BKN015
     FM291500 12005KT P6SM SCT020 SCT150
     FM291800 17008KT P6SM BKN040=



000
FTUS44 KHGX 282050 AAA
TAFHOU
TAF AMD
KHOU 282050Z 2821/2918 15010KT P6SM SCT035
     FM290000 14004KT P6SM SCT015
     FM291000 12003KT P6SM BKN015
     FM291500 12005KT P6SM SCT020 SCT150=



000
FTUS44 KHGX 281731
TAFCLL
TAF
KCLL 281731Z 2818/2918 18010KT P6SM BKN026
     FM281900 18006KT P6SM FEW035
     FM290100 VRB03KT P6SM SCT015
     FM290500 15003KT 5SM BR SCT007 OVC012
      TEMPO 2909/2912 2SM BR OVC007
     FM291500 13004KT P6SM BKN025=



000
FTUS44 KHGX 281731
TAFCXO
TAF
KCXO 281731Z 2818/2918 19008KT P6SM SCT035
     FM290100 VRB03KT P6SM SCT015
     FM290600 00000KT 5SM BR SCT008 OVC012
      TEMPO 2908/2912 1SM BR OVC006
     FM291500 13004KT P6SM BKN025=



000
FTUS44 KHGX 281731
TAFUTS
TAF
KUTS 281731Z 2818/2918 18008KT P6SM SKC
     FM290100 VRB03KT P6SM SCT015
     FM290500 15003KT 5SM BR BKN015
      TEMPO 2908/2912 2SM BR OVC007
     FM291500 13004KT P6SM BKN025=



000
FTUS44 KHGX 281731
TAFLBX
TAF
KLBX 281731Z 2818/2918 19009KT P6SM SKC
     FM290000 14007KT P6SM SCT015
     FM290900 12005KT 5SM BR BKN015
     FM291500 12005KT P6SM SCT020 SCT150=



000
FTUS44 KHGX 281731
TAFSGR
TAF
KSGR 281731Z 2818/2918 20012KT P6SM SKC
     FM282000 15012KT P6SM VCSH BKN035
     FM290000 14005KT P6SM SCT015
     FM290800 14003KT 6SM BR SCT008 BKN015
      TEMPO 2909/2912 5SM BR
     FM291500 12005KT P6SM SCT020 SCT150=



000
FTUS44 KHGX 281731
TAFIAH
TAF
KIAH 281731Z 2818/2924 18008KT P6SM FEW026
     FM282200 14010KT P6SM VCSH BKN035
     FM290000 13007KT P6SM FEW015
     FM291000 12003KT P6SM MIFG BKN015
     FM291500 12005KT P6SM SCT020 SCT150
     FM291800 17008KT P6SM BKN040=



000
FTUS44 KHGX 281731
TAFHOU
TAF
KHOU 281731Z 2818/2918 18008KT P6SM FEW020
     FM282100 14011KT P6SM VCSH BKN035
     FM290000 14004KT P6SM SCT015
     FM291000 12003KT P6SM BKN015
     FM291500 12005KT P6SM SCT020 SCT150=



000
FTUS44 KHGX 281731
TAFGLS
TAF
KGLS 281731Z 2818/2918 19009KT P6SM SKC
     FM290600 15013KT P6SM SCT020 SCT250=



000
FTUS44 KHGX 281612 AAE
TAFCLL
TAF AMD
KCLL 281612Z 2816/2912 22008KT P6SM BKN011
     FM281800 17010KT P6SM FEW030
     FM290500 15003KT 5SM BR SCT007 OVC012
     FM290900 00000KT 2SM BR OVC005=



000
FTUS44 KHGX 281459 AAC
TAFUTS
TAF AMD
KUTS 281459Z 2815/2912 21007KT P6SM SCT008
     FM281900 15006KT P6SM FEW035
     FM290500 15003KT 5SM BR BKN015
     FM290800 00000KT 2SM BR OVC007=



000
FTUS44 KHGX 281459 AAA
TAFHOU
TAF AMD
KHOU 281459Z 2815/2912 17008KT P6SM SCT016
     FM282100 16011KT P6SM VCTS BKN035CB
     FM290000 14004KT P6SM SCT015
     FM290300 12003KT 5SM BR BKN015
      TEMPO 2909/2912 OVC007=



000
FTUS44 KHGX 281459 AAA
TAFIAH
TAF AMD
KIAH 281459Z 2815/2918 19003KT P6SM SKC
     FM282100 15011KT P6SM VCTS BKN035CB
     FM290000 13007KT P6SM FEW015
     FM290900 12003KT P6SM MIFG BKN015
      TEMPO 2910/2913 00000KT 5SM BR OVC008
     FM291500 12005KT P6SM SCT020 SCT150=



000
FTUS44 KHGX 281414 AAC
TAFCLL
TAF AMD
KCLL 281414Z 2814/2912 24005KT P6SM OVC005
     FM281500 17008KT P6SM BKN015
     FM281800 17010KT P6SM FEW030
     FM290500 15003KT 5SM BR SCT007 OVC012
     FM290900 00000KT 2SM BR OVC005=



000
FTUS44 KHGX 281149 RRA
TAFHOU
TAF
KHOU 281149Z 2812/2912 15004KT P6SM SKC
     FM281500 17008KT P6SM SCT015
     FM282100 16011KT P6SM VCTS BKN035CB
     FM290000 14004KT P6SM SCT015
     FM290300 12003KT 5SM BR BKN015
      TEMPO 2909/2912 OVC007=



000
FTUS44 KHGX 281149 RRA
TAFLBX
TAF
KLBX 281149Z 2812/2912 19004KT P6SM SKC
     FM281500 15009KT P6SM SCT015
     FM282100 15011KT P6SM VCTS BKN035CB
     FM290000 14007KT P6SM SCT015
     FM290900 12005KT 5SM BR SCT250=



000
FTUS44 KHGX 281149 RRA
TAFSGR
TAF
KSGR 281149Z 2812/2912 17003KT P6SM SKC
     FM281500 17008KT P6SM SCT020
     FM282100 15012KT P6SM VCTS BKN035CB
     FM290000 14005KT P6SM SCT015
     FM290300 14003KT 5SM BR SCT008 BKN015
      TEMPO 2909/2912 3SM BR=



000
FTUS44 KHGX 281149 RRA
TAFGLS
TAF
KGLS 281149Z 2812/2912 15007KT P6SM SKC
     FM281600 16012KT P6SM SCT025
     FM290600 15013KT P6SM SCT020 SCT250=



000
FTUS44 KHGX 281140
TAFCXO
TAF
KCXO 281140Z 2812/2912 00000KT P6SM SCT150
     FM281500 17005KT P6SM SCT015
     FM281800 18008KT P6SM FEW030
     FM282000 15007KT P6SM VCTS BKN040CB
     FM290100 VRB03KT P6SM SCT015
     FM290600 00000KT 4SM BR SCT008 OVC012
      TEMPO 2908/2912 1SM BR OVC006=



000
FTUS44 KHGX 281140
TAFUTS
TAF
KUTS 281140Z 2812/2912 00000KT 6SM BR OVC008
      TEMPO 2812/2813 1SM BR
     FM281500 17005KT P6SM SCT015
     FM281900 15006KT P6SM FEW030
     FM290500 15003KT 5SM BR BKN015
     FM290800 00000KT 2SM BR OVC007=



000
FTUS44 KHGX 281140
TAFIAH
TAF
KIAH 281140Z 2812/2918 14004KT P6SM SCT150 SCT250
     FM281500 17006KT P6SM SCT030
     FM282100 15011KT P6SM VCTS BKN035CB
     FM290000 13007KT P6SM FEW015
     FM290900 12003KT P6SM MIFG BKN015
      TEMPO 2910/2913 00000KT 5SM BR OVC008
     FM291500 12005KT P6SM SCT020 SCT150=



000
FTUS44 KHGX 281140
TAFLBX
TAF
KLBX 281140Z 2812/2912 19004KT P6SM SKC
     FM281500 16009KT P6SM BKN015
     FM281800 15011KT P6SM VCTS SCT030CB
     FM290100 14007KT P6SM SCT015=



000
FTUS44 KHGX 281140
TAFCLL
TAF
KCLL 281140Z 2812/2912 00000KT 5SM BR OVC005
     FM281500 17008KT P6SM SCT020
     FM281800 17010KT P6SM FEW030
     FM290500 15003KT 5SM BR SCT007 OVC012
     FM290900 00000KT 2SM BR OVC005=



000
FTUS44 KHGX 281140
TAFHOU
TAF
KHOU 281140Z 2812/2912 15004KT P6SM SKC
     FM281500 17008KT P6SM SCT015
     FM281800 16011KT P6SM VCTS BKN035CB
     FM290000 14004KT P6SM SCT015
     FM290300 12003KT 5SM BR BKN015
      TEMPO 2909/2912 OVC007=



000
FTUS44 KHGX 281140
TAFGLS
TAF
KGLS 281140Z 2812/2912 15007KT P6SM SKC
     FM281700 15012KT P6SM SCT025
     FM282100 15013KT P6SM SCT250=



000
FTUS44 KHGX 281140 RRA
TAFSGR
TAF
KSGR 281140Z 2812/2912 17003KT P6SM SKC
     FM281500 17008KT P6SM SCT020
     FM282100 15012KT P6SM VCTS BKN035CB
     FM290000 14005KT P6SM SCT015
     FM290300 14003KT 5SM BR SCT008 BKN015
      TEMPO 2909/2912 3SM BR=



000
FTUS44 KHGX 281140 RRA
TAFLBX
TAF
KLBX 281140Z 2812/2912 19004KT P6SM SKC
     FM281500 15009KT P6SM SCT015
     FM282100 15011KT P6SM VCTS BKN035CB
     FM290000 14007KT P6SM SCT015
     FM290900 12005KT 5SM BR SCT250=



000
FTUS44 KHGX 281140
TAFSGR
TAF
KSGR 281140Z 2812/2912 00000KT P6SM SKC
     FM281500 15008KT P6SM BKN015
     FM281800 16011KT P6SM VCTS SCT035CB
     FM290200 14005KT P6SM SCT015=



000
FTUS44 KHGX 281140 RRA
TAFGLS
TAF
KGLS 281140Z 2812/2912 15007KT P6SM SKC
     FM281600 16012KT P6SM SCT025
     FM290600 15013KT P6SM SCT020 SCT250=



000
FTUS44 KHGX 281140 RRA
TAFHOU
TAF
KHOU 281140Z 2812/2912 15004KT P6SM SKC
     FM281500 17008KT P6SM SCT015
     FM282100 16011KT P6SM VCTS BKN035CB
     FM290000 14004KT P6SM SCT015
     FM290300 12003KT 5SM BR BKN015
      TEMPO 2909/2912 OVC007=



000
FTUS44 KHGX 280841 AAA
TAFCLL
TAF AMD
KCLL 280841Z 2809/2906 07004KT 4SM BR OVC003
      TEMPO 2809/2813 1/4SM FG VV001
     FM281500 17008KT P6SM BKN012
     FM281800 17010KT P6SM SCT025
     FM282000 15007KT P6SM VCTS SCT040CB
     FM290200 VRB04KT P6SM SCT015=



000
FTUS44 KHGX 280520
TAFCLL
TAF
KCLL 280520Z 2806/2906 07004KT 5SM BR OVC003
     FM281500 17008KT P6SM BKN012
     FM281800 17010KT P6SM SCT025
     FM282000 15007KT P6SM VCTS SCT040CB
     FM290200 VRB04KT P6SM SCT015=



000
FTUS44 KHGX 280520
TAFCXO
TAF
KCXO 280520Z 2806/2906 VRB03KT P6SM FEW008 OVC250
     FM280800 VRB02KT 5SM BR BKN006
     FM281500 18005KT P6SM BKN015
     FM281800 18008KT P6SM SCT030
     FM282000 15007KT P6SM VCTS SCT040CB
     FM290200 VRB03KT P6SM SCT015=



000
FTUS44 KHGX 280520
TAFUTS
TAF
KUTS 280520Z 2806/2906 VRB04KT P6SM SCT008 BKN250
      TEMPO 2806/2810 5SM BR BKN008
     FM281000 VRB03KT P6SM OVC006
     FM281500 17006KT P6SM BKN015
     FM281800 17008KT P6SM SCT030
     FM282000 15004KT P6SM VCTS SCT040CB
     FM290200 VRB03KT P6SM SCT015=



000
FTUS44 KHGX 280132 AAA
TAFGLS
TAF AMD
KGLS 280132Z 2802/2824 36015G22KT 5SM TSRA BR SCT020CB BKN060
      TEMPO 2802/2804 VRB25G35KT 1SM +TSRA BR BKN020CB
     FM280600 16006KT P6SM VCSH BKN025
     FM280900 16008KT P6SM BKN015
     FM281700 16013KT P6SM VCSH BKN025
     FM282100 15014KT P6SM FEW250=



000
FTUS44 KHGX 272159 AAB
TAFHOU
TAF AMD
KHOU 272159Z 2722/2818 16011G21KT 5SM TSRA BR SCT025CB BKN040
      TEMPO 2722/2801 VRB20G35KT 1/2SM +TSRA FG BKN006 BKN015CB
     FM280200 16015G23KT P6SM VCSH SCT020 BKN035
     FM280400 16008KT P6SM FEW025 SCT080
     FM280900 16005KT P6SM BKN015
     FM281500 17009KT P6SM BKN025=



000
FTUS44 KHGX 271734
TAFIAH
TAF
KIAH 271734Z 2718/2824 17014G22KT P6SM VCTS BKN025CB OVC070
      TEMPO 2718/2722 VRB20G25KT 2SM TSRA BR BKN015CB
     FM280000 16015G23KT P6SM VCSH SCT020 BKN035
     FM280300 16008KT P6SM FEW025 SCT080
     FM280900 16005KT P6SM BKN015
     FM281500 17009KT P6SM BKN025
     FM281900 15010KT P6SM VCTS BKN040CB=



000
FTUS44 KHGX 271734
TAFHOU
TAF
KHOU 271734Z 2718/2818 16018G29KT P6SM VCTS BKN020CB OVC050
      TEMPO 2719/2723 VRB20G29KT 2SM TSRA BR BKN015CB
     FM280000 16015G23KT P6SM VCSH SCT020 BKN035
     FM280300 16008KT P6SM FEW025 SCT080
     FM280900 16005KT P6SM BKN015
     FM281500 17009KT P6SM BKN025=



000
FTUS44 KHGX 271734
TAFCLL
TAF
KCLL 271734Z 2718/2818 04013G22KT P6SM VCTS BKN030CB OVC045
      TEMPO 2718/2722 VRB15G25KT 5SM TSRA BR BKN025CB
     FM280000 16015G23KT P6SM VCSH SCT020 BKN035
     FM280200 16008KT P6SM FEW025 SCT080
     FM280600 16005KT P6SM BKN015
     FM281500 17009KT P6SM BKN025=



000
FTUS44 KHGX 271734
TAFUTS
TAF
KUTS 271734Z 2718/2818 07010KT P6SM VCTS SCT006 BKN030CB
      TEMPO 2718/2722 VRB15G25KT 5SM TSRA BR BKN025CB
     FM280000 16015G23KT P6SM VCSH SCT020 BKN035
     FM280200 16008KT P6SM FEW025 SCT080
     FM280600 16005KT P6SM BKN015
     FM281500 17009KT P6SM BKN025=



000
FTUS44 KHGX 271734
TAFGLS
TAF
KGLS 271734Z 2718/2818 16019G29KT P6SM VCSH BKN017 OVC024
     FM272000 17017G27KT P6SM VCTS BKN015CB
      TEMPO 2720/2724 VRB20G29KT 3SM TSRA BR BKN015CB
     FM280400 16008KT P6SM BKN015=



000
FTUS44 KHGX 271734
TAFLBX
TAF
KLBX 271734Z 2718/2818 17017G27KT P6SM VCSH BKN029 OVC060
     FM272000 17017G27KT P6SM VCTS BKN025CB
      TEMPO 2720/2724 VRB20G29KT 3SM TSRA BR BKN015CB
     FM280100 16011KT P6SM VCSH FEW015 SCT100
     FM280400 16008KT P6SM FEW025 SCT080
     FM280800 16005KT P6SM BKN015
     FM281500 17009KT P6SM BKN025=



000
FTUS44 KHGX 271452 AAA
TAFHOU
TAF AMD
KHOU 271452Z 2715/2812 14013G18KT P6SM VCSH BKN015 BKN025 OVC120
     FM271800 16016G23KT P6SM VCTS BKN025CB
     FM280200 16010KT P6SM SCT015=



000
FTUS44 KHGX 271452 AAA
TAFIAH
TAF AMD
KIAH 271452Z 2715/2818 10006KT P6SM VCSH BKN015 OVC030
     FM271900 16015G23KT P6SM VCTS SCT020 BKN035CB
     FM280300 16008KT P6SM FEW025 SCT080
     FM280800 16007KT P6SM SCT015=



000
FTUS44 KHGX 271446 AAA
TAFCXO
TAF AMD
KCXO 271446Z 2715/2812 09004KT P6SM VCSH OVC022
      TEMPO 2715/2718 5SM TSRA BR BKN015CB
     FM271800 16015G25KT P6SM VCTS SCT020 BKN035CB
     FM280100 15010KT P6SM SCT015 BKN250
     FM280500 16006KT 6SM MIFG OVC015
      TEMPO 2807/2810 OVC007=



000
FTUS44 KHGX 271428 AAA
TAFCLL
TAF AMD
KCLL 271428Z 2714/2812 VRB05KT 6SM SHRA BR SCT008 OVC024
      TEMPO 2714/2718 4SM TSRA BR BKN015CB
     FM271800 18016G22KT P6SM BKN035
     FM280100 16010KT P6SM FEW025
      TEMPO 2809/2812 BKN020=



000
FTUS44 KHGX 271143 RRB
TAFGLS
TAF
KGLS 271143Z 2712/2812 14016G21KT P6SM SCT015 BKN040
     FM271500 14018G23KT P6SM VCSH SCT025
     FM280300 16017KT P6SM SCT020 BKN120=



000
FTUS44 KHGX 270746 AAB
TAFUTS
TAF AMD
KUTS 270746Z 2708/2806 VRB15G25KT 1SM +TSRA BKN003 OVC020CB
      TEMPO 2708/2709 5SM -TSRA OVC025CB
     FM271000 17009KT P6SM VCSH SCT008 OVC015
     FM271400 17012G22KT P6SM SCT015 BKN030
     FM271800 17013G23KT P6SM VCTS SCT020 BKN035CB
     FM280100 15010KT P6SM SCT015 BKN250=



000
FTUS44 KHGX 270527
TAFUTS
TAF
KUTS 270527Z 2706/2806 16012G22KT P6SM -TSRA FEW008 BKN025CB OVC100
      TEMPO 2707/2711 5SM TSRA BKN008CB
     FM271100 17009KT P6SM SCT008 OVC015
     FM271500 17012G22KT P6SM SCT015 BKN030
     FM271800 17013G23KT P6SM VCTS SCT020 BKN035CB
     FM280100 15010KT P6SM SCT015 BKN250=



000
FTUS44 KHGX 270219 AAD
TAFUTS
TAF AMD
KUTS 270219Z 2702/2724 VRB05KT 6SM -TSRA FEW010 BKN015CB OVC120
     FM270700 16005KT P6SM SCT007 OVC010
     FM271200 16008KT P6SM VCTS SCT010 OVC025CB=



000
FTUS44 KHGX 270157 AAE
TAFIAH
TAF AMD
KIAH 270157Z 2702/2806 00000KT P6SM -TSRA FEW014 BKN035CB OVC070
      TEMPO 2702/2703 2SM +TSRA BR BKN025CB
     FM270500 14014KT P6SM BKN020 OVC040
     FM270900 16009KT P6SM SCT008 OVC015
     FM271500 17011KT P6SM VCSH BKN015 BKN060
     FM271800 15016G22KT P6SM VCTS OVC019CB
     FM272300 16011G19KT P6SM SCT035 OVC050=



000
FTUS44 KHGX 270134 AAA
TAFLBX
TAF AMD
KLBX 270134Z 2702/2724 16012KT P6SM VCSH SCT019 BKN026 OVC030
     FM270600 15012KT P6SM BKN015
     FM270900 17019KT P6SM VCSH OVC015
     FM271700 17019G26KT P6SM VCTS OVC019CB=



000
FTUS44 KHGX 270133 AAB
TAFSGR
TAF AMD
KSGR 270133Z 2702/2724 12004KT P6SM VCSH FEW026 BKN050 OVC070
     FM270500 14006KT P6SM SCT009 BKN015 OVC035
     FM270900 16009KT P6SM SCT008 OVC015
     FM271300 17011KT P6SM VCSH BKN015 BKN060
     FM271800 15016G22KT P6SM VCTS OVC019CB
     FM272300 16011G19KT P6SM SCT035 OVC050=



000
FTUS44 KHGX 270057 AAC
TAFCLL
TAF AMD
KCLL 270057Z 2701/2724 12011G19KT P6SM VCTS BKN008CB OVC080
     FM270700 16013KT P6SM SCT007 OVC010
     FM271200 14013G22KT P6SM VCTS SCT010 OVC025CB=



000
FTUS44 KHGX 270026 AAB
TAFUTS
TAF AMD
KUTS 270026Z 2700/2724 00000KT P6SM -RA VCTS SCT004 BKN013CB OVC027
     FM270700 16005KT P6SM SCT007 OVC010
     FM271200 16008KT P6SM VCTS SCT010 OVC025CB=



000
FTUS44 KHGX 270025 AAB
TAFCLL
TAF AMD
KCLL 270025Z 2700/2724 09011G20KT P6SM VCTS SCT009 OVC015CB
     FM270700 16013KT P6SM SCT007 OVC010
     FM271200 14013G22KT P6SM VCTS SCT010 OVC025CB=



000
FTUS44 KHGX 262343 AAA
TAFIAH
TAF AMD
KIAH 262343Z 2700/2806 17011G24KT P6SM -TSRA BKN022CB BKN060 OVC130
     FM270500 14014KT P6SM BKN020 OVC040
     FM270900 16009KT P6SM SCT008 OVC015
     FM271500 17011KT P6SM VCSH BKN015 BKN060
     FM271800 15016G22KT P6SM VCTS OVC019CB
     FM272300 16011G19KT P6SM SCT035 OVC050=



000
FTUS44 KHGX 262331 AAA
TAFCLL
TAF AMD
KCLL 262331Z 2700/2724 06009KT P6SM -TSRA SCT007 OVC015CB
     FM270200 14012KT P6SM VCTS SCT007 BKN015CB
     FM270700 16013KT P6SM SCT007 OVC010
     FM271200 14013G22KT P6SM VCTS SCT010 OVC025CB=



000
FTUS44 KHGX 262330
TAFLBX
TAF
KLBX 262330Z 2700/2724 16019G28KT P6SM VCSH BKN022 BKN027
     FM270600 15014KT P6SM BKN015
     FM270900 17019KT P6SM VCSH OVC015
     FM271700 17019G26KT P6SM VCTS OVC019CB=



000
FTUS44 KHGX 262330
TAFUTS
TAF
KUTS 262330Z 2700/2724 04004KT P6SM -RA SCT008 BKN021 BKN050
     FM270200 14012KT P6SM VCTS SCT007 BKN015CB
     FM270700 16013KT P6SM SCT007 OVC010
     FM271200 14013G22KT P6SM VCTS SCT010 OVC025CB=



000
FTUS44 KHGX 262330
TAFHOU
TAF
KHOU 262330Z 2700/2724 17010G22KT P6SM VCSH SCT021 BKN026 BKN150
     FM270500 14012KT P6SM SCT009 BKN015 OVC035
     FM270900 16009KT P6SM SCT008 OVC015
     FM271300 17011KT P6SM VCSH BKN015 BKN060
     FM271800 15016G22KT P6SM VCTS OVC019CB
     FM272300 16011G19KT P6SM SCT035 OVC050=



000
FTUS44 KHGX 262330
TAFCLL
TAF
KCLL 262330Z 2700/2724 06009KT P6SM -TSRA BKN007 OVC011CB
     FM270200 14012KT P6SM VCTS SCT007 BKN015CB
     FM270700 16013KT P6SM SCT007 OVC010
     FM271200 14013G22KT P6SM VCTS SCT010 OVC025CB=



000
FTUS44 KHGX 262330
TAFCXO
TAF
KCXO 262330Z 2700/2724 VRB20KT 1/2SM +TSRA FG BKN009 BKN019CB
      OVC024
     FM270500 15008KT P6SM BKN020
     FM270900 16009KT P6SM SCT008 OVC015
     FM271500 17011KT P6SM VCSH BKN015 BKN060
     FM271800 15016G22KT P6SM VCTS OVC019CB
     FM272300 16011G19KT P6SM SCT035 OVC050=



000
FTUS44 KHGX 262330
TAFSGR
TAF
KSGR 262330Z 2700/2724 17016G24KT P6SM VCTS FEW028 SCT040CB OVC150
     FM270500 14012KT P6SM SCT009 BKN015 OVC035
     FM270900 16009KT P6SM SCT008 OVC015
     FM271300 17011KT P6SM VCSH BKN015 BKN060
     FM271800 15016G22KT P6SM VCTS OVC019CB
     FM272300 16011G19KT P6SM SCT035 OVC050=



000
FTUS44 KHGX 262330
TAFGLS
TAF
KGLS 262330Z 2700/2724 15020G24KT 6SM BR VCSH BKN017 OVC022
     FM270500 15017G24KT P6SM OVC025
     FM270900 17018G25KT P6SM SCT007 BKN012
     FM271200 16020G26KT P6SM VCSH OVC015=



000
FTUS44 KHGX 262330
TAFIAH
TAF
KIAH 262330Z 2700/2806 17011G24KT P6SM VCTS BKN022CB BKN060 OVC130
     FM270500 14014KT P6SM BKN020 OVC040
     FM270900 16009KT P6SM SCT008 OVC015
     FM271500 17011KT P6SM VCSH BKN015 BKN060
     FM271800 15016G22KT P6SM VCTS OVC019CB
     FM272300 16011G19KT P6SM SCT035 OVC050=



000
FTUS44 KHGX 262155 AAD
TAFIAH
TAF AMD
KIAH 262155Z 2622/2724 14020G26KT P6SM VCTS BKN020CB BKN040 OVC150
     FM270100 15010KT P6SM BKN015 BKN100
     FM270900 16009KT P6SM SCT008 OVC015
     FM271300 17011KT P6SM VCSH BKN015 BKN060
     FM271800 15013KT P6SM VCTS OVC025CB=



000
FTUS44 KHGX 262107 AAD
TAFCXO
TAF AMD
KCXO 262107Z 2621/2718 09008KT P6SM -TSRA BKN015 BKN022CB OVC027
      TEMPO 2622/2624 VRB20KT 2SM TSRA BR BKN015CB
     FM270300 15008KT P6SM BKN020
     FM270700 16008KT P6SM VCSH BKN007 OVC012=



000
FTUS44 KHGX 262054 AAD
TAFUTS
TAF AMD
KUTS 262054Z 2621/2718 VRB04KT 5SM TSRA BR SCT010 BKN013CB OVC021
      TEMPO 2621/2623 1 1/2SM +TSRA BR BKN013CB
     FM270300 15008KT P6SM BKN020
     FM270700 16009KT P6SM BKN007 OVC012
     FM271200 16010KT P6SM VCSH OVC025=



000
FTUS44 KHGX 262046 AAB
TAFSGR
TAF AMD
KSGR 262046Z 2621/2718 17014G20KT P6SM VCSH FEW022 BKN035
     FM262200 17014KT P6SM VCTS BKN025CB
     FM270100 15010KT P6SM BKN015 BKN100
     FM270900 16009KT P6SM SCT008 OVC015
     FM271300 17011KT P6SM VCSH BKN015 BKN060=



000
FTUS44 KHGX 261921 AAA
TAFSGR
TAF AMD
KSGR 261921Z 2619/2718 17013KT P6SM FEW022 BKN035
     FM270100 15010KT P6SM BKN015 BKN100
     FM270900 16009KT P6SM SCT008 OVC015
     FM271300 17011KT P6SM VCSH BKN015 BKN060=



000
FTUS44 KHGX 261920 AAA
TAFHOU
TAF AMD
KHOU 261920Z 2619/2718 16010KT P6SM VCSH SCT020 BKN045 OVC150
     FM262000 15010KT P6SM VCTS OVC025CB
     FM270100 15010KT P6SM BKN015 BKN100
     FM270900 16009KT P6SM SCT008 OVC015
     FM271300 17011KT P6SM VCSH BKN015 BKN060=



000
FTUS44 KHGX 261920 AAA
TAFIAH
TAF AMD
KIAH 261920Z 2619/2724 15011KT P6SM VCSH SCT028 BKN045 OVC200
     FM270100 15010KT P6SM BKN015 BKN100
     FM270900 16009KT P6SM SCT008 OVC015
     FM271300 17011KT P6SM VCSH BKN015 BKN060
     FM271800 15013KT P6SM VCTS OVC025CB=



000
FTUS44 KHGX 261805 AAA
TAFUTS
TAF AMD
KUTS 261805Z 2618/2718 12006KT 5SM -RA BR VCTS FEW020CB BKN100
      OVC110
     FM270300 15008KT P6SM BKN020
     FM270700 16009KT P6SM BKN007 OVC012
     FM271200 16010KT P6SM VCSH OVC025=



000
FTUS44 KHGX 261709 AAC
TAFLBX
TAF AMD
KLBX 261709Z 2617/2712 17015G21KT P6SM FEW021 SCT027 BKN035
     FM262100 14015G21KT P6SM VCSH BKN025
     FM270300 15014KT P6SM BKN015
     FM270900 17012KT P6SM OVC015=



000
FTUS44 KHGX 261707 AAC
TAFHOU
TAF AMD
KHOU 261707Z 2617/2712 16010G17KT P6SM BKN025 BKN045 OVC250
     FM261900 14011KT P6SM VCTS BKN025CB OVC070CB
     FM270100 15010KT P6SM BKN015 BKN100
     FM270900 16010KT P6SM SCT008 OVC015=



000
FTUS44 KHGX 261706 AAE
TAFCXO
TAF AMD
KCXO 261706Z 2617/2712 14010KT 6SM -TSRA BR FEW017 BKN030CB OVC070
     FM270300 15008KT P6SM BKN020
     FM270700 16008KT P6SM VCSH BKN007 OVC012=



000
FTUS44 KHGX 261553 AAD
TAFSGR
TAF AMD
KSGR 261553Z 2616/2712 16014G23KT P6SM VCTS BKN017CB BKN030 OVC070
     FM262100 15008KT P6SM VCTS SCT015CB OVC070
     FM270100 15010KT P6SM BKN015 BKN100
     FM270900 16010KT P6SM SCT008 OVC015=



000
FTUS44 KHGX 261349 AAA
TAFCLL
TAF AMD
KCLL 261349Z 2614/2712 15006KT P6SM VCTS SCT010 BKN015CB OVC022
      TEMPO 2614/2616 VRB20KT 2SM TSRA
     FM261800 16014KT P6SM VCTS BKN030CB
      TEMPO 2619/2623 VRB20KT 4SM -TSRA OVC025CB
     FM270300 15011KT P6SM BKN020
     FM270700 16013KT P6SM BKN007 OVC012 PROB30 2707/2712 SHRA=



000
FTUS44 KHGX 261347 AAA
TAFSGR
TAF AMD
KSGR 261347Z 2614/2712 15008KT P6SM FEW012 BKN020 OVC040
     FM262100 14011KT P6SM VCTS SCT015 OVC070CB
     FM270100 15010KT P6SM BKN015 BKN100
     FM270900 16010KT P6SM SCT008 OVC015=



000
FTUS44 KHGX 261140
TAFLBX
TAF
KLBX 261140Z 2612/2712 16013KT P6SM SCT020 OVC028
     FM261500 16015KT P6SM SCT025 BKN035
     FM262100 14015G21KT P6SM VCSH BKN025
     FM270300 15014KT P6SM BKN015
     FM270900 17012KT P6SM OVC015=



000
FTUS44 KHGX 261140
TAFHOU
TAF
KHOU 261140Z 2612/2712 15007KT P6SM SCT015 BKN025 BKN200
     FM261500 15009KT P6SM SCT020 BKN150
     FM262100 14011KT P6SM VCTS SCT015 OVC070CB
     FM270100 15010KT P6SM BKN015 BKN100
     FM270900 16010KT P6SM SCT008 OVC015=



000
FTUS44 KHGX 261140
TAFGLS
TAF
KGLS 261140Z 2612/2712 15013KT P6SM OVC020
     FM270500 15017G24KT P6SM OVC025
     FM270900 17018G25KT P6SM SCT007 BKN012=



000
FTUS44 KHGX 261140
TAFSGR
TAF
KSGR 261140Z 2612/2712 16006KT P6SM BKN015 OVC030
     FM261500 15009KT P6SM SCT020 BKN150
     FM262100 14011KT P6SM VCTS SCT015 OVC070CB
     FM270100 15010KT P6SM BKN015 BKN100
     FM270900 16010KT P6SM SCT008 OVC015=



000
FTUS44 KHGX 261140
TAFUTS
TAF
KUTS 261140Z 2612/2712 17006KT P6SM OVC020
      TEMPO 2615/2618 -SHRA
     FM261800 16011KT P6SM VCTS BKN030CB
      TEMPO 2620/2623 VRB20KT 4SM -TSRA OVC025CB
     FM270300 15008KT P6SM BKN020
     FM270700 16009KT P6SM BKN007 OVC012 PROB30 2707/2712 SHRA=



000
FTUS44 KHGX 261140
TAFCXO
TAF
KCXO 261140Z 2612/2712 11003KT P6SM SCT015 BKN025
      TEMPO 2615/2618 -SHRA
     FM261900 16011KT P6SM VCTS BKN025CB
      TEMPO 2620/2623 VRB20KT 4SM -TSRA OVC025CB
     FM270300 15008KT P6SM BKN020
     FM270700 16008KT P6SM BKN007 OVC012 PROB30 2707/2712 SHRA=



000
FTUS44 KHGX 261140
TAFIAH
TAF
KIAH 261140Z 2612/2718 17006KT P6SM BKN015 OVC200
     FM261500 16009KT P6SM SCT020 BKN150
     FM262100 15011KT P6SM VCTS SCT015 OVC070CB
     FM270100 15010KT P6SM BKN015 BKN100
     FM270900 16009KT P6SM SCT008 OVC015
     FM271300 17011KT P6SM VCSH SCT015 BKN060=



000
FTUS44 KHGX 261140
TAFCLL
TAF
KCLL 261140Z 2612/2712 15007KT P6SM VCSH OVC015
      TEMPO 2615/2618 -SHRA OVC020
     FM261800 16014KT P6SM VCTS BKN030CB
      TEMPO 2619/2623 VRB20KT 4SM -TSRA OVC025CB
     FM270300 15011KT P6SM BKN020
     FM270700 16013KT P6SM BKN007 OVC012 PROB30 2707/2712 SHRA=



000
FTUS44 KHGX 260900 AAA
TAFIAH
TAF AMD
KIAH 260900Z 2609/2712 16008KT P6SM BKN015 BKN040 OVC200
     FM261500 15009KT P6SM SCT015 BKN150
     FM262000 15012KT P6SM VCSH SCT030 OVC150
     FM270600 15011KT P6SM BKN015=



000
FTUS44 KHGX 260900 AAA
TAFHOU
TAF AMD
KHOU 260900Z 2609/2706 15007KT P6SM BKN015 BKN040 BKN200
     FM261500 15009KT P6SM SCT015 BKN150
     FM262000 15012KT P6SM VCSH SCT030 OVC150=



    US Dept of Commerce
    National Oceanic and Atmospheric Administration
    National Weather Service
    1325 East West Highway
    Silver Spring, MD 20910
    Page Author: NWS Internet Services Team
Disclaimer
Information Quality
Credits
Glossary
Privacy Policy
Freedom of Information Act (FOIA)
About Us
Career Opportunities